Time;durP1;ratioP1;P1;durP2;ratioP2;P2;SDS_P1;SDS_P2;PMS_P1;PMS_P2;Temp;Humidity;BMP_temperature;BMP_pressure;BME280_temperature;BME280_humidity;BME280_pressure;Samples;Min_cycle;Max_cycle;Signal;HPM_P1;HPM_P2
2021/07/10 00:07:14;;;;;;;14.23;5.93;;;16.30;99.90;;;;;;20501004;28;20049;-47
2021/07/10 00:17:16;;;;;;;16.20;5.70;;;16.20;99.90;;;;;;20511225;28;20050;-48
2021/07/10 00:27:17;;;;;;;18.33;7.60;;;16.30;99.90;;;;;;20509611;28;20042;-47
2021/07/10 00:37:18;;;;;;;12.35;4.90;;;16.40;99.90;;;;;;20510955;28;20047;-48
2021/07/10 00:47:19;;;;;;;12.10;5.00;;;16.50;99.90;;;;;;20504164;28;20114;-47
2021/07/10 00:57:22;;;;;;;17.05;6.53;;;16.50;99.90;;;;;;20484388;28;20039;-48
2021/07/10 01:07:23;;;;;;;13.13;5.28;;;16.50;99.90;;;;;;20480808;28;20101;-47
2021/07/10 01:17:25;;;;;;;13.25;4.57;;;16.40;99.90;;;;;;20500318;28;20169;-48
2021/07/10 01:27:26;;;;;;;11.57;6.20;;;16.40;99.90;;;;;;20491661;28;20043;-47
2021/07/10 01:37:27;;;;;;;15.15;5.20;;;16.30;99.90;;;;;;20501998;28;20158;-48
2021/07/10 01:47:28;;;;;;;14.13;5.68;;;16.30;99.90;;;;;;20487379;28;20047;-48
2021/07/10 01:57:29;;;;;;;18.55;5.88;;;16.20;99.90;;;;;;20501467;28;20039;-48
2021/07/10 02:07:31;;;;;;;13.35;5.25;;;16.20;99.90;;;;;;20494131;28;20487;-48
2021/07/10 02:17:32;;;;;;;17.05;6.93;;;16.10;99.90;;;;;;20494602;28;20046;-47
2021/07/10 02:27:33;;;;;;;20.00;6.00;;;16.10;99.90;;;;;;20502554;28;20043;-48
2021/07/10 02:37:37;;;;;;;18.10;6.30;;;16.10;99.90;;;;;;20489548;28;20039;-47
2021/07/10 02:47:39;;;;;;;17.30;6.13;;;16.00;99.90;;;;;;20481557;28;20043;-47
2021/07/10 02:57:41;;;;;;;16.35;6.78;;;15.80;99.90;;;;;;20487070;28;20035;-47
2021/07/10 03:07:43;;;;;;;15.43;6.40;;;15.80;99.90;;;;;;20486312;28;20072;-48
2021/07/10 03:17:46;;;;;;;14.70;6.07;;;15.70;99.90;;;;;;20506225;28;20102;-47
2021/07/10 03:27:49;;;;;;;17.02;6.30;;;15.60;99.90;;;;;;20487936;28;20039;-47
2021/07/10 03:37:51;;;;;;;20.67;7.88;;;15.60;99.90;;;;;;20474009;28;20031;-47
2021/07/10 03:47:53;;;;;;;19.25;7.90;;;15.60;99.90;;;;;;20487344;28;20126;-47
2021/07/10 03:57:54;;;;;;;24.75;8.82;;;15.60;99.90;;;;;;20488131;28;20083;-47
2021/07/10 04:07:55;;;;;;;20.45;8.50;;;15.60;99.90;;;;;;20482690;28;20114;-47
2021/07/10 04:17:56;;;;;;;23.45;8.63;;;15.60;99.90;;;;;;20478194;28;20043;-48
2021/07/10 04:27:58;;;;;;;21.80;9.63;;;15.70;99.90;;;;;;20480238;28;20034;-47
2021/07/10 04:37:59;;;;;;;23.50;8.73;;;15.80;99.90;;;;;;20494207;28;20046;-48
2021/07/10 04:48:00;;;;;;;24.52;8.52;;;15.90;99.90;;;;;;20505619;28;20034;-48
2021/07/10 04:58:02;;;;;;;21.65;7.88;;;16.00;99.90;;;;;;20515568;28;20261;-48
2021/07/10 05:08:03;;;;;;;22.27;9.07;;;16.00;99.90;;;;;;20511012;28;20066;-48
2021/07/10 05:18:06;;;;;;;22.80;8.32;;;16.10;99.90;;;;;;20486135;28;20046;-48
2021/07/10 05:28:07;;;;;;;21.58;7.93;;;16.20;99.90;;;;;;20484549;28;20357;-48
2021/07/10 05:38:08;;;;;;;17.95;6.75;;;16.40;99.90;;;;;;20481905;28;20043;-47
2021/07/10 05:48:09;;;;;;;22.08;8.57;;;16.70;99.90;;;;;;20488915;28;20050;-47
2021/07/10 05:58:13;;;;;;;17.38;6.45;;;17.00;99.90;;;;;;20500052;28;20124;-48
2021/07/10 06:08:14;;;;;;;16.30;6.63;;;17.50;99.90;;;;;;20487749;28;20039;-48
2021/07/10 06:18:16;;;;;;;17.92;6.70;;;17.80;99.90;;;;;;20497935;28;20046;-48
2021/07/10 06:28:17;;;;;;;18.85;6.88;;;17.80;99.90;;;;;;20495539;28;20481;-47
2021/07/10 06:38:18;;;;;;;16.17;6.03;;;17.70;99.90;;;;;;20498585;28;20125;-48
2021/07/10 06:48:20;;;;;;;17.13;6.38;;;18.00;99.90;;;;;;20498530;28;20584;-48
2021/07/10 06:58:21;;;;;;;21.15;7.47;;;17.90;99.90;;;;;;20490006;28;20134;-47
2021/07/10 07:08:22;;;;;;;20.27;8.07;;;17.90;99.90;;;;;;20478422;28;20053;-48
2021/07/10 07:18:23;;;;;;;13.90;5.53;;;18.10;99.90;;;;;;20490030;28;20047;-48
2021/07/10 07:28:24;;;;;;;16.52;6.03;;;18.20;99.90;;;;;;20497829;28;20186;-48
2021/07/10 07:38:27;;;;;;;18.67;6.40;;;18.30;99.90;;;;;;20486345;28;20055;-48
2021/07/10 07:48:28;;;;;;;18.38;6.07;;;18.30;99.90;;;;;;20273756;28;20430;-48
2021/07/10 07:58:29;;;;;;;18.35;6.65;;;18.50;99.90;;;;;;20014663;28;20830;-48
2021/07/10 08:08:33;;;;;;;18.45;6.50;;;18.80;99.90;;;;;;20003951;28;20908;-48
2021/07/10 08:18:36;;;;;;;19.02;7.47;;;18.60;99.90;;;;;;20021476;28;21081;-47
2021/07/10 08:28:37;;;;;;;15.77;6.15;;;18.80;99.90;;;;;;20018288;28;20407;-48
2021/07/10 08:38:38;;;;;;;19.10;6.15;;;19.10;99.90;;;;;;20034939;28;25696;-48
2021/07/10 08:48:40;;;;;;;19.35;6.93;;;19.00;99.90;;;;;;20435189;28;20551;-48
2021/07/10 08:58:42;;;;;;;15.65;4.82;;;19.50;99.90;;;;;;20497868;28;20090;-48
2021/07/10 09:08:52;;;;;;;10.93;4.88;;;19.60;99.90;;;;;;20517229;28;20652;-48
2021/07/10 09:18:59;;;;;;;16.80;5.93;;;19.50;99.90;;;;;;20508423;28;20062;-48
2021/07/10 09:29:28;;;;;;;11.10;4.80;;;20.00;99.90;;;;;;20534600;28;20030;-47
2021/07/10 09:39:32;;;;;;;14.13;6.45;;;20.10;99.90;;;;;;20511716;28;20053;-47
2021/07/10 09:49:34;;;;;;;12.52;5.35;;;20.30;99.90;;;;;;20517365;28;20039;-48
2021/07/10 09:59:51;;;;;;;13.55;6.35;;;20.40;99.90;;;;;;20508017;28;20051;-47
2021/07/10 10:09:55;;;;;;;12.05;5.45;;;20.80;99.90;;;;;;20517428;28;20047;-47
2021/07/10 10:19:56;;;;;;;14.85;5.85;;;20.90;99.90;;;;;;20335084;28;20054;-47
2021/07/10 10:29:58;;;;;;;12.18;6.35;;;21.20;99.90;;;;;;20254652;28;20035;-47
2021/07/10 10:40:00;;;;;;;15.27;6.65;;;21.70;99.90;;;;;;20365747;28;20046;-48
2021/07/10 10:50:19;;;;;;;10.98;5.40;;;21.80;99.90;;;;;;20431166;28;20314;-47
2021/07/10 11:00:23;;;;;;;10.93;5.03;;;22.10;99.90;;;;;;20489039;28;20098;-47
2021/07/10 11:10:25;;;;;;;11.20;5.85;;;22.30;99.90;;;;;;20478451;28;20055;-47
2021/07/10 11:20:41;;;;;;;12.95;5.30;;;22.60;99.90;;;;;;20503505;28;20174;-47
2021/07/10 11:30:51;;;;;;;9.70;4.75;;;22.80;99.90;;;;;;20490592;28;20050;-48
2021/07/10 11:41:00;;;;;;;10.70;5.15;;;23.00;99.90;;;;;;20513496;28;21536;-47
2021/07/10 11:51:05;;;;;;;7.75;4.85;;;23.60;99.90;;;;;;20501295;28;20071;-48
2021/07/10 12:01:06;;;;;;;10.30;4.38;;;23.60;99.90;;;;;;20511151;28;20031;-48
2021/07/10 12:11:10;;;;;;;11.52;4.30;;;23.20;99.90;;;;;;20518832;28;20030;-48
2021/07/10 12:21:13;;;;;;;9.10;4.47;;;22.50;99.90;;;;;;20527173;28;20047;-48
2021/07/10 12:31:14;;;;;;;10.13;4.72;;;22.70;99.90;;;;;;20540575;28;20035;-48
2021/07/10 12:41:31;;;;;;;7.28;3.65;;;23.40;99.90;;;;;;20500052;28;20062;-48
2021/07/10 12:51:32;;;;;;;9.67;4.97;;;23.50;99.90;;;;;;20513926;28;20034;-48
2021/07/10 13:01:34;;;;;;;8.63;3.25;;;23.80;99.90;;;;;;20521037;28;20050;-48
2021/07/10 13:11:52;;;;;;;7.32;4.03;;;23.60;99.90;;;;;;20503726;28;20031;-48
2021/07/10 13:21:54;;;;;;;6.78;3.17;;;23.20;99.90;;;;;;20514096;28;20042;-48
2021/07/10 13:31:58;;;;;;;7.43;3.28;;;23.50;99.90;;;;;;20521369;28;20038;-48
2021/07/10 13:42:08;;;;;;;4.30;2.75;;;23.80;99.90;;;;;;20518726;28;20057;-48
2021/07/10 13:52:21;;;;;;;7.75;3.33;;;23.60;99.90;;;;;;20517880;28;20120;-48
2021/07/10 14:02:24;;;;;;;5.45;2.53;;;23.90;99.90;;;;;;20506510;28;20043;-48
2021/07/10 14:12:25;;;;;;;7.38;2.70;;;23.80;99.90;;;;;;20526243;28;20515;-48
2021/07/10 14:22:26;;;;;;;4.72;2.47;;;23.60;99.90;;;;;;20496309;28;20066;-48
2021/07/10 14:32:28;;;;;;;8.88;3.17;;;23.40;99.90;;;;;;20503324;28;20041;-48
2021/07/10 14:42:30;;;;;;;6.57;2.95;;;23.10;99.90;;;;;;20507486;28;20126;-47
2021/07/10 14:52:31;;;;;;;7.43;3.63;;;22.80;99.90;;;;;;20517816;28;20048;-48
2021/07/10 15:02:33;;;;;;;5.82;2.85;;;22.70;99.90;;;;;;20499921;28;20062;-47
2021/07/10 15:12:36;;;;;;;5.55;2.53;;;22.60;99.90;;;;;;20523132;28;20038;-48
2021/07/10 15:22:38;;;;;;;5.32;2.88;;;22.20;99.90;;;;;;20502771;28;20043;-48
2021/07/10 15:32:40;;;;;;;6.45;2.88;;;21.90;99.90;;;;;;20503010;28;20035;-48
2021/07/10 15:42:41;;;;;;;14.75;5.18;;;21.70;99.90;;;;;;20506723;28;20043;-48
2021/07/10 15:52:44;;;;;;;11.35;6.10;;;21.90;99.90;;;;;;20485901;28;20038;-48
2021/07/10 16:02:45;;;;;;;8.55;3.97;;;21.90;99.90;;;;;;20499155;28;20581;-48
2021/07/10 16:12:47;;;;;;;8.85;3.97;;;21.60;99.90;;;;;;20486761;28;20334;-48
2021/07/10 16:22:49;;;;;;;10.68;4.55;;;21.70;99.90;;;;;;20482283;28;20062;-48
2021/07/10 16:32:50;;;;;;;7.40;3.90;;;21.80;99.90;;;;;;20481739;28;20062;-48
2021/07/10 16:42:52;;;;;;;8.48;3.80;;;21.80;99.90;;;;;;20511849;28;20536;-48
2021/07/10 16:52:54;;;;;;;7.68;3.80;;;21.50;99.90;;;;;;20507744;28;20142;-48
2021/07/10 17:02:55;;;;;;;5.97;3.53;;;21.60;99.90;;;;;;20499416;28;20043;-48
2021/07/10 17:12:56;;;;;;;7.57;4.28;;;21.40;99.90;;;;;;20484455;28;20035;-48
2021/07/10 17:22:58;;;;;;;8.50;4.40;;;21.10;99.90;;;;;;20500030;28;20051;-48
2021/07/10 17:32:59;;;;;;;12.00;4.50;;;20.90;99.90;;;;;;20498705;28;20043;-48
2021/07/10 17:43:00;;;;;;;11.32;4.40;;;20.90;99.90;;;;;;20498008;28;20043;-48
2021/07/10 17:53:02;;;;;;;9.18;4.00;;;21.00;99.90;;;;;;20495224;28;20672;-48
2021/07/10 18:03:04;;;;;;;8.80;4.53;;;21.00;99.90;;;;;;20494135;28;20039;-48
2021/07/10 18:13:05;;;;;;;9.57;4.40;;;21.00;99.90;;;;;;20503075;28;20068;-48
2021/07/10 18:23:06;;;;;;;11.48;5.45;;;20.80;99.90;;;;;;20495653;28;20054;-48
2021/07/10 18:33:07;;;;;;;15.18;5.97;;;20.90;99.90;;;;;;20491535;28;20047;-47
2021/07/10 18:43:08;;;;;;;10.82;4.65;;;20.90;99.90;;;;;;20495958;28;20045;-48
2021/07/10 18:53:10;;;;;;;13.23;5.40;;;20.70;99.90;;;;;;20228530;28;20045;-48
2021/07/10 19:03:13;;;;;;;16.80;6.28;;;20.60;99.90;;;;;;20105036;28;20035;-48
2021/07/10 19:13:15;;;;;;;8.32;4.72;;;20.50;99.90;;;;;;20311522;28;20035;-48
2021/07/10 19:23:17;;;;;;;17.80;5.05;;;20.20;99.90;;;;;;20510271;28;20059;-48
2021/07/10 19:33:18;;;;;;;8.80;4.03;;;20.10;99.90;;;;;;20200179;28;20723;-48
2021/07/10 19:43:19;;;;;;;8.63;3.47;;;19.90;99.90;;;;;;20405434;28;20269;-48
2021/07/10 19:53:21;;;;;;;7.78;4.55;;;19.70;99.90;;;;;;20481517;28;20034;-48
2021/07/10 20:03:22;;;;;;;15.20;6.28;;;19.50;99.90;;;;;;20494869;28;20039;-48
2021/07/10 20:13:25;;;;;;;10.20;4.95;;;19.40;99.90;;;;;;20473024;28;20054;-48
2021/07/10 20:23:26;;;;;;;14.15;6.50;;;19.20;99.90;;;;;;20499244;28;20043;-48
2021/07/10 20:33:29;;;;;;;12.00;5.47;;;19.20;99.90;;;;;;20494442;28;20047;-48
2021/07/10 20:43:30;;;;;;;10.50;4.95;;;19.00;99.90;;;;;;20495817;28;20053;-48
2021/07/10 20:53:31;;;;;;;11.90;4.85;;;18.90;99.90;;;;;;20498647;28;20047;-48
2021/07/10 21:03:32;;;;;;;11.63;4.45;;;18.90;99.90;;;;;;20500528;28;20035;-48
2021/07/10 21:13:37;;;;;;;7.95;4.18;;;19.00;99.90;;;;;;20496288;28;20042;-47
2021/07/10 21:23:38;;;;;;;10.98;3.83;;;18.90;99.90;;;;;;20492175;28;20134;-48
2021/07/10 21:33:39;;;;;;;9.73;3.58;;;18.80;99.90;;;;;;20491853;28;20118;-48
2021/07/10 21:43:41;;;;;;;6.70;3.50;;;18.80;99.90;;;;;;20494662;28;20055;-47
2021/07/10 21:53:43;;;;;;;7.30;3.42;;;18.80;99.90;;;;;;20495286;28;20031;-48
2021/07/10 22:03:44;;;;;;;8.13;3.42;;;18.80;99.90;;;;;;20487534;28;20035;-48
2021/07/10 22:13:45;;;;;;;7.15;2.42;;;18.70;99.90;;;;;;20494102;28;20110;-47
2021/07/10 22:23:48;;;;;;;8.10;2.78;;;18.80;99.90;;;;;;20492767;28;20043;-48
2021/07/10 22:33:50;;;;;;;7.43;3.45;;;18.80;99.90;;;;;;20499393;28;20042;-48
2021/07/10 22:43:53;;;;;;;5.00;2.67;;;18.80;99.90;;;;;;20494430;28;21473;-47
2021/07/10 22:53:55;;;;;;;7.18;2.83;;;18.70;99.90;;;;;;20494559;28;20229;-48
2021/07/10 23:03:56;;;;;;;7.80;3.20;;;18.70;99.90;;;;;;20500870;28;20201;-48
2021/07/10 23:13:58;;;;;;;7.15;2.30;;;18.60;99.90;;;;;;20490004;28;20126;-48
2021/07/10 23:23:59;;;;;;;5.57;3.05;;;18.50;99.90;;;;;;20490818;28;20147;-48
2021/07/10 23:34:00;;;;;;;7.05;3.05;;;18.50;99.90;;;;;;20493321;28;20053;-47
2021/07/10 23:44:01;;;;;;;5.93;2.78;;;18.40;99.90;;;;;;20493660;28;20035;-47
2021/07/10 23:54:03;;;;;;;6.75;2.50;;;18.20;99.90;;;;;;20492832;28;20089;-48
